sensor_id;sensor_type;location;lat;lon;timestamp;noise_LAeq;noise_LA_min;noise_LA_max;noise_LA01;noise_LA95
40465;Laerm;30489;48.982;8.394;2023-02-10T00:00:10;40.14;38.52;42.03;;
40465;Laerm;30489;48.982;8.394;2023-02-10T00:02:21;40.12;38.37;42.22;;
40465;Laerm;30489;48.982;8.394;2023-02-10T00:04:31;40.14;38.37;42.53;;
40465;Laerm;30489;48.982;8.394;2023-02-10T00:06:41;40.16;38.67;41.75;;
40465;Laerm;30489;48.982;8.394;2023-02-10T00:08:56;40.12;38.52;42.59;;
40465;Laerm;30489;48.982;8.394;2023-02-10T00:11:10;40.15;38.21;41.68;;
40465;Laerm;30489;48.982;8.394;2023-02-10T00:13:28;40.17;38.52;41.46;;
40465;Laerm;30489;48.982;8.394;2023-02-10T00:30:56;40.13;38.52;41.61;;
40465;Laerm;30489;48.982;8.394;2023-02-10T00:33:13;40.15;38.21;41.61;;
40465;Laerm;30489;48.982;8.394;2023-02-10T00:35:23;40.11;38.52;41.46;;
40465;Laerm;30489;48.982;8.394;2023-02-10T00:37:34;40.05;38.52;41.38;;
40465;Laerm;30489;48.982;8.394;2023-02-10T00:39:50;40.05;38.37;41.68;;
40465;Laerm;30489;48.982;8.394;2023-02-10T00:42:45;40.12;38.52;41.46;;
40465;Laerm;30489;48.982;8.394;2023-02-10T00:56:01;40.04;38.37;41.82;;
40465;Laerm;30489;48.982;8.394;2023-02-10T00:58:11;40.01;38.21;41.38;;
40465;Laerm;30489;48.982;8.394;2023-02-10T01:00:21;39.98;38.52;41.30;;
40465;Laerm;30489;48.982;8.394;2023-02-10T01:02:32;39.98;38.05;41.68;;
40465;Laerm;30489;48.982;8.394;2023-02-10T01:04:42;39.94;38.05;41.30;;
40465;Laerm;30489;48.982;8.394;2023-02-10T01:06:52;39.91;38.18;41.46;;
40465;Laerm;30489;48.982;8.394;2023-02-10T01:09:02;39.85;38.21;41.38;;
40465;Laerm;30489;48.982;8.394;2023-02-10T01:13:28;39.86;38.05;41.22;;
40465;Laerm;30489;48.982;8.394;2023-02-10T01:21:09;39.95;38.47;41.38;;
40465;Laerm;30489;48.982;8.394;2023-02-10T01:38:33;39.76;38.05;41.38;;
40465;Laerm;30489;48.982;8.394;2023-02-10T01:46:53;39.76;37.88;41.22;;
40465;Laerm;30489;48.982;8.394;2023-02-10T01:49:51;39.73;37.88;41.30;;
40465;Laerm;30489;48.982;8.394;2023-02-10T01:52:13;39.76;38.05;41.53;;
40465;Laerm;30489;48.982;8.394;2023-02-10T01:54:39;39.76;37.70;41.30;;
40465;Laerm;30489;48.982;8.394;2023-02-10T01:57:09;39.78;37.88;41.22;;
40465;Laerm;30489;48.982;8.394;2023-02-10T02:04:57;39.73;37.88;41.38;;
40465;Laerm;30489;48.982;8.394;2023-02-10T02:39:13;39.65;38.05;41.06;;
40465;Laerm;30489;48.982;8.394;2023-02-10T02:44:44;39.65;37.52;41.22;;
40465;Laerm;30489;48.982;8.394;2023-02-10T02:54:57;39.76;37.87;41.30;;
40465;Laerm;30489;48.982;8.394;2023-02-10T02:57:12;39.75;37.52;41.14;;
40465;Laerm;30489;48.982;8.394;2023-02-10T02:59:41;39.77;37.88;41.30;;
40465;Laerm;30489;48.982;8.394;2023-02-10T03:01:56;39.76;37.52;41.22;;
40465;Laerm;30489;48.982;8.394;2023-02-10T03:04:07;39.81;38.21;41.38;;
40465;Laerm;30489;48.982;8.394;2023-02-10T03:06:18;39.77;38.21;41.22;;
40465;Laerm;30489;48.982;8.394;2023-02-10T03:08:29;39.77;37.88;41.14;;
40465;Laerm;30489;48.982;8.394;2023-02-10T03:10:40;39.79;38.21;41.38;;
40465;Laerm;30489;48.982;8.394;2023-02-10T03:12:51;39.79;38.21;41.30;;
40465;Laerm;30489;48.982;8.394;2023-02-10T03:15:02;39.80;38.05;41.22;;
40465;Laerm;30489;48.982;8.394;2023-02-10T03:17:12;39.77;38.05;41.38;;
40465;Laerm;30489;48.982;8.394;2023-02-10T03:19:23;39.79;38.05;41.38;;
40465;Laerm;30489;48.982;8.394;2023-02-10T03:21:33;39.76;37.70;41.46;;
40465;Laerm;30489;48.982;8.394;2023-02-10T03:23:43;39.79;38.21;41.26;;
40465;Laerm;30489;48.982;8.394;2023-02-10T03:25:54;39.77;38.21;41.46;;
40465;Laerm;30489;48.982;8.394;2023-02-10T03:28:06;39.75;38.05;41.30;;
40465;Laerm;30489;48.982;8.394;2023-02-10T03:30:17;39.74;37.88;41.38;;
40465;Laerm;30489;48.982;8.394;2023-02-10T03:32:27;39.73;38.05;41.22;;
40465;Laerm;30489;48.982;8.394;2023-02-10T03:34:37;39.71;37.88;41.14;;
40465;Laerm;30489;48.982;8.394;2023-02-10T03:36:48;39.74;38.18;41.38;;
40465;Laerm;30489;48.982;8.394;2023-02-10T03:38:58;39.76;37.88;41.22;;
40465;Laerm;30489;48.982;8.394;2023-02-10T03:41:08;39.71;38.05;41.14;;
40465;Laerm;30489;48.982;8.394;2023-02-10T03:43:19;39.71;37.53;41.22;;
40465;Laerm;30489;48.982;8.394;2023-02-10T03:45:29;39.70;38.05;41.06;;
40465;Laerm;30489;48.982;8.394;2023-02-10T03:47:39;39.66;38.02;41.06;;
40465;Laerm;30489;48.982;8.394;2023-02-10T03:49:50;39.67;37.88;41.14;;
40465;Laerm;30489;48.982;8.394;2023-02-10T03:52:00;39.67;37.70;41.30;;
40465;Laerm;30489;48.982;8.394;2023-02-10T03:54:10;39.69;37.88;41.22;;
40465;Laerm;30489;48.982;8.394;2023-02-10T03:56:21;39.67;37.88;41.06;;
40465;Laerm;30489;48.982;8.394;2023-02-10T03:58:31;39.64;38.05;41.22;;
40465;Laerm;30489;48.982;8.394;2023-02-10T04:11:26;39.60;37.32;41.22;;
40465;Laerm;30489;48.982;8.394;2023-02-10T04:13:51;39.56;37.70;41.14;;
40465;Laerm;30489;48.982;8.394;2023-02-10T04:16:14;39.58;37.70;41.38;;
40465;Laerm;30489;48.982;8.394;2023-02-10T04:18:25;39.57;37.32;41.06;;
40465;Laerm;30489;48.982;8.394;2023-02-10T04:20:36;39.56;37.88;41.06;;
40465;Laerm;30489;48.982;8.394;2023-02-10T04:22:51;39.53;37.70;41.14;;
40465;Laerm;30489;48.982;8.394;2023-02-10T04:25:23;39.51;37.52;41.22;;
40465;Laerm;30489;48.982;8.394;2023-02-10T04:27:45;39.53;37.70;41.06;;
40465;Laerm;30489;48.982;8.394;2023-02-10T04:39:33;39.48;37.70;41.22;;
40465;Laerm;30489;48.982;8.394;2023-02-10T05:20:35;39.34;37.52;41.06;;
40465;Laerm;30489;48.982;8.394;2023-02-10T05:22:45;39.39;37.52;40.89;;
40465;Laerm;30489;48.982;8.394;2023-02-10T05:24:56;39.39;37.52;40.98;;
40465;Laerm;30489;48.982;8.394;2023-02-10T05:27:07;39.41;37.32;41.14;;
40465;Laerm;30489;48.982;8.394;2023-02-10T05:29:17;39.39;37.52;40.80;;
40465;Laerm;30489;48.982;8.394;2023-02-10T05:31:27;39.40;37.12;40.98;;
40465;Laerm;30489;48.982;8.394;2023-02-10T05:33:38;39.48;37.12;41.38;;
40465;Laerm;30489;48.982;8.394;2023-02-10T05:35:48;39.43;37.70;41.14;;
40465;Laerm;30489;48.982;8.394;2023-02-10T05:37:58;39.41;37.52;46.10;;
40465;Laerm;30489;48.982;8.394;2023-02-10T05:40:11;39.37;37.32;40.98;;
40465;Laerm;30489;48.982;8.394;2023-02-10T05:42:22;39.37;37.12;40.89;;
40465;Laerm;30489;48.982;8.394;2023-02-10T05:44:32;39.36;37.52;40.71;;
40465;Laerm;30489;48.982;8.394;2023-02-10T05:46:42;39.37;37.52;41.30;;
40465;Laerm;30489;48.982;8.394;2023-02-10T05:48:52;39.36;37.52;40.80;;
40465;Laerm;30489;48.982;8.394;2023-02-10T05:51:03;39.37;37.52;41.06;;
40465;Laerm;30489;48.982;8.394;2023-02-10T05:53:13;39.34;37.52;40.98;;
40465;Laerm;30489;48.982;8.394;2023-02-10T05:55:23;39.32;37.32;41.06;;
40465;Laerm;30489;48.982;8.394;2023-02-10T05:57:33;39.33;37.32;40.89;;
40465;Laerm;30489;48.982;8.394;2023-02-10T05:59:44;39.31;37.32;41.14;;
40465;Laerm;30489;48.982;8.394;2023-02-10T06:05:02;39.31;37.32;41.14;;
40465;Laerm;30489;48.982;8.394;2023-02-10T06:07:51;39.31;37.32;40.89;;
40465;Laerm;30489;48.982;8.394;2023-02-10T06:10:07;39.31;37.12;41.06;;
40465;Laerm;30489;48.982;8.394;2023-02-10T06:14:57;39.32;37.12;40.96;;
40465;Laerm;30489;48.982;8.394;2023-02-10T06:17:07;39.33;37.12;40.80;;
40465;Laerm;30489;48.982;8.394;2023-02-10T06:19:39;39.33;37.52;41.06;;
40465;Laerm;30489;48.982;8.394;2023-02-10T06:22:13;39.34;37.52;41.14;;
40465;Laerm;30489;48.982;8.394;2023-02-10T07:22:58;39.43;37.70;41.06;;
40465;Laerm;30489;48.982;8.394;2023-02-10T07:25:08;39.44;37.52;41.06;;
40465;Laerm;30489;48.982;8.394;2023-02-10T07:27:18;39.41;37.70;40.98;;
40465;Laerm;30489;48.982;8.394;2023-02-10T07:29:29;39.42;37.52;41.06;;
40465;Laerm;30489;48.982;8.394;2023-02-10T07:31:39;39.38;37.12;40.71;;
40465;Laerm;30489;48.982;8.394;2023-02-10T07:33:50;39.38;37.12;41.22;;
40465;Laerm;30489;48.982;8.394;2023-02-10T07:36:00;39.37;37.32;40.98;;
40465;Laerm;30489;48.982;8.394;2023-02-10T07:38:13;39.37;37.70;41.14;;
40465;Laerm;30489;48.982;8.394;2023-02-10T07:40:23;39.39;37.12;41.06;;
40465;Laerm;30489;48.982;8.394;2023-02-10T07:42:33;39.38;37.32;41.14;;
40465;Laerm;30489;48.982;8.394;2023-02-10T07:44:44;39.41;37.52;41.22;;
40465;Laerm;30489;48.982;8.394;2023-02-10T07:46:54;39.42;37.32;41.06;;
40465;Laerm;30489;48.982;8.394;2023-02-10T07:49:04;39.42;37.12;41.06;;
40465;Laerm;30489;48.982;8.394;2023-02-10T07:51:15;39.42;37.12;41.06;;
40465;Laerm;30489;48.982;8.394;2023-02-10T07:53:25;39.43;37.52;40.89;;
40465;Laerm;30489;48.982;8.394;2023-02-10T07:55:38;39.43;37.52;41.14;;
40465;Laerm;30489;48.982;8.394;2023-02-10T07:57:49;39.41;37.52;41.14;;
40465;Laerm;30489;48.982;8.394;2023-02-10T08:00:01;39.41;37.70;41.14;;
40465;Laerm;30489;48.982;8.394;2023-02-10T08:02:11;39.40;37.52;41.14;;
40465;Laerm;30489;48.982;8.394;2023-02-10T08:04:21;39.39;37.70;40.98;;
40465;Laerm;30489;48.982;8.394;2023-02-10T08:06:32;39.37;37.35;41.14;;
40465;Laerm;30489;48.982;8.394;2023-02-10T08:08:42;39.38;37.12;40.98;;
40465;Laerm;30489;48.982;8.394;2023-02-10T08:10:52;39.37;37.32;41.26;;
40465;Laerm;30489;48.982;8.394;2023-02-10T08:13:02;39.38;37.70;41.22;;
40465;Laerm;30489;48.982;8.394;2023-02-10T08:15:13;39.37;37.52;41.30;;
40465;Laerm;30489;48.982;8.394;2023-02-10T08:17:23;39.39;37.32;41.06;;
40465;Laerm;30489;48.982;8.394;2023-02-10T08:19:33;39.42;37.52;41.06;;
40465;Laerm;30489;48.982;8.394;2023-02-10T08:21:46;39.44;37.12;41.06;;
40465;Laerm;30489;48.982;8.394;2023-02-10T08:23:56;39.48;37.70;40.98;;
40465;Laerm;30489;48.982;8.394;2023-02-10T08:26:10;39.49;37.52;41.14;;
40465;Laerm;30489;48.982;8.394;2023-02-10T08:28:21;39.46;37.52;41.22;;
40465;Laerm;30489;48.982;8.394;2023-02-10T08:30:31;39.50;37.52;41.06;;
40465;Laerm;30489;48.982;8.394;2023-02-10T08:32:41;39.49;37.32;40.98;;
40465;Laerm;30489;48.982;8.394;2023-02-10T08:34:52;39.49;37.32;41.06;;
40465;Laerm;30489;48.982;8.394;2023-02-10T08:37:02;39.51;37.70;40.98;;
40465;Laerm;30489;48.982;8.394;2023-02-10T08:39:13;39.51;37.32;41.22;;
40465;Laerm;30489;48.982;8.394;2023-02-10T08:41:23;39.49;37.70;40.89;;
40465;Laerm;30489;48.982;8.394;2023-02-10T08:43:33;39.52;37.70;41.14;;
40465;Laerm;30489;48.982;8.394;2023-02-10T08:45:44;39.53;37.52;41.22;;
40465;Laerm;30489;48.982;8.394;2023-02-10T08:47:54;39.55;37.52;41.30;;
40465;Laerm;30489;48.982;8.394;2023-02-10T08:50:05;39.60;37.70;41.68;;
40465;Laerm;30489;48.982;8.394;2023-02-10T08:52:15;39.59;37.88;40.98;;
40465;Laerm;30489;48.982;8.394;2023-02-10T08:54:25;39.58;37.70;41.06;;
40465;Laerm;30489;48.982;8.394;2023-02-10T08:56:36;39.60;37.52;41.14;;
40465;Laerm;30489;48.982;8.394;2023-02-10T08:58:46;39.66;37.52;41.14;;
40465;Laerm;30489;48.982;8.394;2023-02-10T09:00:56;39.66;37.70;41.38;;
40465;Laerm;30489;48.982;8.394;2023-02-10T09:03:07;39.69;37.88;41.11;;
40465;Laerm;30489;48.982;8.394;2023-02-10T09:05:17;39.70;38.05;41.46;;
40465;Laerm;30489;48.982;8.394;2023-02-10T09:07:28;39.74;37.88;41.30;;
40465;Laerm;30489;48.982;8.394;2023-02-10T09:09:40;39.73;37.88;41.38;;
40465;Laerm;30489;48.982;8.394;2023-02-10T09:11:51;39.80;37.88;41.75;;
40465;Laerm;30489;48.982;8.394;2023-02-10T09:14:02;39.82;38.21;41.53;;
40465;Laerm;30489;48.982;8.394;2023-02-10T09:16:12;39.84;38.21;41.26;;
40465;Laerm;30489;48.982;8.394;2023-02-10T09:18:22;39.92;38.21;41.46;;
40465;Laerm;30489;48.982;8.394;2023-02-10T09:20:33;39.95;38.37;41.53;;
40465;Laerm;30489;48.982;8.394;2023-02-10T09:22:43;39.93;37.88;41.68;;
40465;Laerm;30489;48.982;8.394;2023-02-10T09:24:54;39.96;38.05;41.46;;
40465;Laerm;30489;48.982;8.394;2023-02-10T09:27:04;40.01;38.37;41.46;;
40465;Laerm;30489;48.982;8.394;2023-02-10T09:29:15;40.02;38.52;41.46;;
40465;Laerm;30489;48.982;8.394;2023-02-10T09:31:25;40.05;38.37;41.46;;
40465;Laerm;30489;48.982;8.394;2023-02-10T09:33:35;40.09;38.05;41.68;;
40465;Laerm;30489;48.982;8.394;2023-02-10T09:35:46;40.10;38.37;41.46;;
40465;Laerm;30489;48.982;8.394;2023-02-10T09:37:59;40.18;38.37;41.61;;
40465;Laerm;30489;48.982;8.394;2023-02-10T09:40:20;40.19;38.37;41.61;;
40465;Laerm;30489;48.982;8.394;2023-02-10T09:42:51;40.21;38.81;41.75;;
40465;Laerm;30489;48.982;8.394;2023-02-10T09:45:12;40.19;38.67;41.68;;
40465;Laerm;30489;48.982;8.394;2023-02-10T09:47:26;40.23;38.67;41.61;;
40465;Laerm;30489;48.982;8.394;2023-02-10T09:54:14;40.30;38.52;41.82;;
40465;Laerm;30489;48.982;8.394;2023-02-10T09:56:25;40.29;38.37;41.61;;
40465;Laerm;30489;48.982;8.394;2023-02-10T09:58:36;40.34;38.52;41.75;;
40465;Laerm;30489;48.982;8.394;2023-02-10T10:00:54;40.33;38.81;41.61;;
40465;Laerm;30489;48.982;8.394;2023-02-10T10:03:06;40.37;38.81;41.68;;
40465;Laerm;30489;48.982;8.394;2023-02-10T10:07:45;40.39;38.67;41.82;;
40465;Laerm;30489;48.982;8.394;2023-02-10T10:10:04;40.38;38.81;41.82;;
40465;Laerm;30489;48.982;8.394;2023-02-10T10:12:16;40.39;38.67;41.68;;
40465;Laerm;30489;48.982;8.394;2023-02-10T10:14:28;40.39;38.95;41.75;;
40465;Laerm;30489;48.982;8.394;2023-02-10T10:31:44;40.49;38.52;41.82;;
40465;Laerm;30489;48.982;8.394;2023-02-10T10:36:21;40.54;38.81;41.82;;
40465;Laerm;30489;48.982;8.394;2023-02-10T10:38:33;40.55;38.95;41.96;;
40465;Laerm;30489;48.982;8.394;2023-02-10T10:40:45;40.57;39.08;41.82;;
40465;Laerm;30489;48.982;8.394;2023-02-10T10:42:58;40.63;39.34;41.96;;
40465;Laerm;30489;48.982;8.394;2023-02-10T10:45:14;40.67;38.95;41.89;;
40465;Laerm;30489;48.982;8.394;2023-02-10T10:49:36;40.69;39.21;41.96;;
40465;Laerm;30489;48.982;8.394;2023-02-10T10:51:46;40.73;39.21;42.09;;
40465;Laerm;30489;48.982;8.394;2023-02-10T10:53:58;40.73;39.21;41.89;;
40465;Laerm;30489;48.982;8.394;2023-02-10T10:58:29;40.78;39.46;42.16;;
40465;Laerm;30489;48.982;8.394;2023-02-10T11:00:48;40.79;39.34;42.19;;
40465;Laerm;30489;48.982;8.394;2023-02-10T11:03:00;40.84;39.34;42.03;;
40465;Laerm;30489;48.982;8.394;2023-02-10T11:05:12;40.89;39.46;42.03;;
40465;Laerm;30489;48.982;8.394;2023-02-10T11:07:23;40.92;39.34;42.09;;
40465;Laerm;30489;48.982;8.394;2023-02-10T11:09:40;40.95;39.46;41.96;;
40465;Laerm;30489;48.982;8.394;2023-02-10T11:11:51;40.97;39.58;42.36;;
40465;Laerm;30489;48.982;8.394;2023-02-10T11:14:09;40.98;39.68;42.09;;
40465;Laerm;30489;48.982;8.394;2023-02-10T11:16:21;40.98;39.46;42.35;;
40465;Laerm;30489;48.982;8.394;2023-02-10T11:18:32;41.02;39.58;42.22;;
40465;Laerm;30489;48.982;8.394;2023-02-10T11:20:50;41.05;39.34;42.16;;
40465;Laerm;30489;48.982;8.394;2023-02-10T11:23:02;41.08;39.81;42.16;;
40465;Laerm;30489;48.982;8.394;2023-02-10T11:25:30;41.09;39.81;42.09;;
40465;Laerm;30489;48.982;8.394;2023-02-10T11:27:48;41.12;39.78;42.22;;
40465;Laerm;30489;48.982;8.394;2023-02-10T11:29:59;41.18;39.46;42.29;;
40465;Laerm;30489;48.982;8.394;2023-02-10T11:32:17;41.31;40.13;42.41;;
40465;Laerm;30489;48.982;8.394;2023-02-10T11:34:33;41.36;40.13;42.53;;
40465;Laerm;30489;48.982;8.394;2023-02-10T11:36:47;41.40;40.03;42.53;;
40465;Laerm;30489;48.982;8.394;2023-02-10T11:39:02;41.44;39.81;42.65;;
40465;Laerm;30489;48.982;8.394;2023-02-10T11:41:13;41.45;40.13;42.47;;
40465;Laerm;30489;48.982;8.394;2023-02-10T11:43:27;41.48;40.23;42.76;;
40465;Laerm;30489;48.982;8.394;2023-02-10T11:45:38;41.50;40.23;42.59;;
40465;Laerm;30489;48.982;8.394;2023-02-10T11:47:58;41.52;40.23;42.71;;
40465;Laerm;30489;48.982;8.394;2023-02-10T11:50:29;41.59;40.13;42.76;;
40465;Laerm;30489;48.982;8.394;2023-02-10T11:52:40;41.62;40.23;42.71;;
40465;Laerm;30489;48.982;8.394;2023-02-10T11:54:50;41.66;40.13;42.76;;
40465;Laerm;30489;48.982;8.394;2023-02-10T12:02:23;41.74;40.53;42.93;;
40465;Laerm;30489;48.982;8.394;2023-02-10T12:04:53;41.87;40.53;42.93;;
40465;Laerm;30489;48.982;8.394;2023-02-10T12:07:25;41.91;40.62;43.19;;
40465;Laerm;30489;48.982;8.394;2023-02-10T12:09:44;41.88;40.53;43.09;;
40465;Laerm;30489;48.982;8.394;2023-02-10T12:16:28;41.96;40.79;43.09;;
40465;Laerm;30489;48.982;8.394;2023-02-10T12:18:48;42.03;40.62;43.14;;
40465;Laerm;30489;48.982;8.394;2023-02-10T12:36:47;42.15;41.03;43.14;;
40465;Laerm;30489;48.982;8.394;2023-02-10T12:39:05;42.15;40.89;43.14;;
40465;Laerm;30489;48.982;8.394;2023-02-10T12:43:54;42.16;40.53;43.09;;
40465;Laerm;30489;48.982;8.394;2023-02-10T12:52:45;42.17;40.98;43.24;;
40465;Laerm;30489;48.982;8.394;2023-02-10T12:55:13;42.17;41.06;43.39;;
40465;Laerm;30489;48.982;8.394;2023-02-10T12:57:42;42.19;40.89;43.29;;
40465;Laerm;30489;48.982;8.394;2023-02-10T13:02:15;42.19;40.89;43.19;;
40465;Laerm;30489;48.982;8.394;2023-02-10T13:06:41;42.19;41.06;43.49;;
40465;Laerm;30489;48.982;8.394;2023-02-10T13:09:05;42.21;40.62;43.34;;
40465;Laerm;30489;48.982;8.394;2023-02-10T13:14:15;42.22;41.06;43.29;;
40465;Laerm;30489;48.982;8.394;2023-02-10T13:16:28;42.22;40.89;43.29;;
40465;Laerm;30489;48.982;8.394;2023-02-10T13:18:43;42.23;40.89;43.19;;
40465;Laerm;30489;48.982;8.394;2023-02-10T13:21:00;42.21;40.98;43.29;;
40465;Laerm;30489;48.982;8.394;2023-02-10T13:23:24;42.22;40.80;43.33;;
40465;Laerm;30489;48.982;8.394;2023-02-10T13:32:56;42.22;41.06;43.24;;
40465;Laerm;30489;48.982;8.394;2023-02-10T13:35:16;42.22;40.98;43.19;;
40465;Laerm;30489;48.982;8.394;2023-02-10T13:37:35;42.24;40.89;43.24;;
40465;Laerm;30489;48.982;8.394;2023-02-10T13:39:48;42.23;40.98;43.34;;
40465;Laerm;30489;48.982;8.394;2023-02-10T13:42:45;42.24;40.62;43.39;;
40465;Laerm;30489;48.982;8.394;2023-02-10T13:44:33;42.24;41.06;43.34;;
40465;Laerm;30489;48.982;8.394;2023-02-10T13:46:55;42.24;40.80;43.29;;
40465;Laerm;30489;48.982;8.394;2023-02-10T13:49:11;42.25;41.06;43.49;;
40465;Laerm;30489;48.982;8.394;2023-02-10T13:51:31;42.25;40.80;43.34;;
40465;Laerm;30489;48.982;8.394;2023-02-10T13:53:42;42.25;41.06;43.24;;
40465;Laerm;30489;48.982;8.394;2023-02-10T13:56:02;42.25;40.98;43.29;;
40465;Laerm;30489;48.982;8.394;2023-02-10T14:02:34;42.24;40.98;43.34;;
40465;Laerm;30489;48.982;8.394;2023-02-10T14:04:45;42.26;40.98;43.29;;
40465;Laerm;30489;48.982;8.394;2023-02-10T14:06:59;42.24;41.06;43.19;;
40465;Laerm;30489;48.982;8.394;2023-02-10T14:11:38;42.26;41.06;43.34;;
40465;Laerm;30489;48.982;8.394;2023-02-10T14:14:02;42.24;40.89;43.39;;
40465;Laerm;30489;48.982;8.394;2023-02-10T14:18:25;42.29;41.14;43.81;;
40465;Laerm;30489;48.982;8.394;2023-02-10T14:20:37;42.25;40.71;43.24;;
40465;Laerm;30489;48.982;8.394;2023-02-10T14:22:49;42.26;41.14;43.34;;
40465;Laerm;30489;48.982;8.394;2023-02-10T14:25:02;42.25;41.06;43.34;;
40465;Laerm;30489;48.982;8.394;2023-02-10T14:27:14;42.25;40.80;43.39;;
40465;Laerm;30489;48.982;8.394;2023-02-10T14:29:25;42.26;41.06;43.29;;
40465;Laerm;30489;48.982;8.394;2023-02-10T14:31:38;42.25;40.98;43.34;;
40465;Laerm;30489;48.982;8.394;2023-02-10T14:33:59;42.25;41.06;43.29;;
40465;Laerm;30489;48.982;8.394;2023-02-10T14:36:17;42.26;40.80;43.29;;
40465;Laerm;30489;48.982;8.394;2023-02-10T14:38:29;42.25;41.06;43.29;;
40465;Laerm;30489;48.982;8.394;2023-02-10T14:40:40;42.24;41.06;43.44;;
40465;Laerm;30489;48.982;8.394;2023-02-10T14:42:53;42.27;41.06;43.24;;
40465;Laerm;30489;48.982;8.394;2023-02-10T14:45:04;42.26;40.98;43.39;;
40465;Laerm;30489;48.982;8.394;2023-02-10T14:47:15;42.26;40.96;43.29;;
40465;Laerm;30489;48.982;8.394;2023-02-10T14:49:26;42.26;41.06;43.44;;
40465;Laerm;30489;48.982;8.394;2023-02-10T14:51:39;42.26;41.06;43.44;;
40465;Laerm;30489;48.982;8.394;2023-02-10T14:53:50;42.26;41.06;43.39;;
40465;Laerm;30489;48.982;8.394;2023-02-10T14:56:00;42.25;41.14;43.29;;
40465;Laerm;30489;48.982;8.394;2023-02-10T14:58:15;42.27;40.80;43.24;;
40465;Laerm;30489;48.982;8.394;2023-02-10T15:00:28;42.26;40.98;43.29;;
40465;Laerm;30489;48.982;8.394;2023-02-10T15:02:38;42.25;41.06;43.34;;
40465;Laerm;30489;48.982;8.394;2023-02-10T15:04:49;42.26;41.14;43.39;;
40465;Laerm;30489;48.982;8.394;2023-02-10T15:07:00;42.27;41.06;43.34;;
40465;Laerm;30489;48.982;8.394;2023-02-10T15:09:14;42.26;40.98;43.44;;
40465;Laerm;30489;48.982;8.394;2023-02-10T15:11:27;42.26;41.14;43.34;;
40465;Laerm;30489;48.982;8.394;2023-02-10T15:13:57;42.27;41.06;43.58;;
40465;Laerm;30489;48.982;8.394;2023-02-10T15:16:10;42.26;41.06;43.29;;
40465;Laerm;30489;48.982;8.394;2023-02-10T15:18:32;42.26;41.22;43.24;;
40465;Laerm;30489;48.982;8.394;2023-02-10T15:20:53;42.26;41.14;43.58;;
40465;Laerm;30489;48.982;8.394;2023-02-10T15:23:05;42.27;40.89;43.34;;
40465;Laerm;30489;48.982;8.394;2023-02-10T15:25:34;42.26;40.71;43.29;;
40465;Laerm;30489;48.982;8.394;2023-02-10T15:27:48;42.26;40.89;43.39;;
40465;Laerm;30489;48.982;8.394;2023-02-10T15:30:05;42.26;41.11;43.19;;
40465;Laerm;30489;48.982;8.394;2023-02-10T15:32:21;42.26;40.89;43.39;;
40465;Laerm;30489;48.982;8.394;2023-02-10T15:34:32;42.27;41.06;43.29;;
40465;Laerm;30489;48.982;8.394;2023-02-10T15:36:46;42.26;40.89;43.49;;
40465;Laerm;30489;48.982;8.394;2023-02-10T15:41:14;42.26;41.06;43.34;;
40465;Laerm;30489;48.982;8.394;2023-02-10T15:43:35;42.27;41.14;43.29;;
40465;Laerm;30489;48.982;8.394;2023-02-10T15:45:48;42.26;40.89;43.29;;
40465;Laerm;30489;48.982;8.394;2023-02-10T15:50:09;42.26;41.06;43.34;;
40465;Laerm;30489;48.982;8.394;2023-02-10T15:52:21;42.26;40.96;43.39;;
40465;Laerm;30489;48.982;8.394;2023-02-10T15:54:32;42.26;40.89;43.19;;
40465;Laerm;30489;48.982;8.394;2023-02-10T15:56:56;42.26;41.06;43.29;;
40465;Laerm;30489;48.982;8.394;2023-02-10T15:59:16;42.27;41.14;43.19;;
40465;Laerm;30489;48.982;8.394;2023-02-10T16:01:26;42.27;40.98;43.34;;
40465;Laerm;30489;48.982;8.394;2023-02-10T16:03:36;42.26;40.89;43.34;;
40465;Laerm;30489;48.982;8.394;2023-02-10T16:05:47;42.26;40.98;43.24;;
40465;Laerm;30489;48.982;8.394;2023-02-10T16:08:01;42.27;40.98;43.44;;
40465;Laerm;30489;48.982;8.394;2023-02-10T16:10:21;42.26;41.11;43.34;;
40465;Laerm;30489;48.982;8.394;2023-02-10T16:12:32;42.27;41.14;43.44;;
40465;Laerm;30489;48.982;8.394;2023-02-10T16:14:42;42.26;40.80;43.29;;
40465;Laerm;30489;48.982;8.394;2023-02-10T16:16:54;42.26;40.98;43.34;;
40465;Laerm;30489;48.982;8.394;2023-02-10T16:19:05;42.26;40.80;43.34;;
40465;Laerm;30489;48.982;8.394;2023-02-10T16:21:17;42.25;40.89;43.49;;
40465;Laerm;30489;48.982;8.394;2023-02-10T16:23:27;42.27;41.06;43.29;;
40465;Laerm;30489;48.982;8.394;2023-02-10T16:25:40;42.26;41.14;43.24;;
40465;Laerm;30489;48.982;8.394;2023-02-10T16:27:50;42.26;40.98;43.34;;
40465;Laerm;30489;48.982;8.394;2023-02-10T16:30:00;42.25;40.89;43.44;;
40465;Laerm;30489;48.982;8.394;2023-02-10T16:32:11;42.27;41.14;43.63;;
40465;Laerm;30489;48.982;8.394;2023-02-10T16:34:21;42.25;40.89;43.44;;
40465;Laerm;30489;48.982;8.394;2023-02-10T16:36:31;42.26;41.06;43.29;;
40465;Laerm;30489;48.982;8.394;2023-02-10T16:38:42;42.25;40.98;43.39;;
40465;Laerm;30489;48.982;8.394;2023-02-10T16:40:52;42.24;40.62;43.24;;
40465;Laerm;30489;48.982;8.394;2023-02-10T16:43:02;42.24;41.14;43.34;;
40465;Laerm;30489;48.982;8.394;2023-02-10T16:45:13;42.22;40.89;43.24;;
40465;Laerm;30489;48.982;8.394;2023-02-10T16:47:23;42.21;40.89;43.44;;
40465;Laerm;30489;48.982;8.394;2023-02-10T16:49:34;42.20;40.89;43.34;;
40465;Laerm;30489;48.982;8.394;2023-02-10T16:51:44;42.16;40.80;43.24;;
40465;Laerm;30489;48.982;8.394;2023-02-10T16:53:54;42.13;40.89;43.14;;
40465;Laerm;30489;48.982;8.394;2023-02-10T16:56:05;42.13;40.89;43.14;;
40465;Laerm;30489;48.982;8.394;2023-02-10T16:58:17;42.16;40.98;43.29;;
40465;Laerm;30489;48.982;8.394;2023-02-10T17:00:28;42.16;40.98;43.29;;
40465;Laerm;30489;48.982;8.394;2023-02-10T17:02:38;42.19;40.98;43.29;;
40465;Laerm;30489;48.982;8.394;2023-02-10T17:04:49;42.19;40.80;43.24;;
40465;Laerm;30489;48.982;8.394;2023-02-10T17:06:59;42.20;40.89;43.49;;
40465;Laerm;30489;48.982;8.394;2023-02-10T17:09:21;42.21;40.98;43.29;;
40465;Laerm;30489;48.982;8.394;2023-02-10T17:11:32;42.22;41.06;43.49;;
40465;Laerm;30489;48.982;8.394;2023-02-10T17:13:42;42.24;40.98;43.34;;
40465;Laerm;30489;48.982;8.394;2023-02-10T17:15:53;42.24;40.80;43.24;;
40465;Laerm;30489;48.982;8.394;2023-02-10T17:18:03;42.23;40.62;43.29;;
40465;Laerm;30489;48.982;8.394;2023-02-10T17:22:30;42.24;40.89;43.34;;
40465;Laerm;30489;48.982;8.394;2023-02-10T17:24:40;42.23;41.14;43.34;;
40465;Laerm;30489;48.982;8.394;2023-02-10T17:26:50;42.24;41.06;43.49;;
40465;Laerm;30489;48.982;8.394;2023-02-10T17:29:01;42.24;40.80;43.34;;
40465;Laerm;30489;48.982;8.394;2023-02-10T17:31:15;42.23;41.06;43.24;;
40465;Laerm;30489;48.982;8.394;2023-02-10T17:33:25;42.23;40.98;43.54;;
40465;Laerm;30489;48.982;8.394;2023-02-10T17:35:37;42.24;40.89;43.19;;
40465;Laerm;30489;48.982;8.394;2023-02-10T17:37:47;42.23;40.98;43.29;;
40465;Laerm;30489;48.982;8.394;2023-02-10T17:40:17;42.22;40.98;43.29;;
40465;Laerm;30489;48.982;8.394;2023-02-10T17:42:33;42.22;41.06;43.24;;
40465;Laerm;30489;48.982;8.394;2023-02-10T17:44:44;42.23;40.98;43.49;;
40465;Laerm;30489;48.982;8.394;2023-02-10T17:46:54;42.21;41.06;43.14;;
40465;Laerm;30489;48.982;8.394;2023-02-10T17:49:04;42.20;40.98;43.24;;